KMSO Airport Information


Runway Information
Runway 07 Length 4612 ft width 75 ft
Elevation 3199 ft Threshold 0 ft Heading 89
Runway 25 Length 4612 ft Width 75 ft
Elevation 3204 ft Threshold 0 ft Heading 269
Runway 11 Length 9501 ft width 150 ft
Elevation 3192 ft Threshold 0 ft Heading 130
Runway 29 Length 9501 ft Width 150 ft
Elevation 3205 ft Threshold 0 ft Heading 310
Airport Frequencies
Type A/D Name SPOKANE AP Frequency 124.9 MHZ
Type ATIS Name ATIS Frequency 126.65 MHZ
Type CTAF Name CTAF Frequency 118.4 MHZ
Type GND Name GND Frequency 121.9 MHZ
Type RDO Name GREAT FALL Frequency 122.45 MHZ
Type TWR Name TWR Frequency 118.4 MHZ
Type UNIC Name UNICOM Frequency 122.95 MHZ
Airport Navaids
Type NDB Name Konna Frequency 521 KHZ
Type VOR-DME Name Missoula Frequency 112800 KHZ
Airport Weather Information & NOTAM
ADDS - METARS form results

(2024 UTC 25 January 2022)
Data provider http://aviationweather.gov/metar/data/
 
METAR text: KMSO 251958Z 30005KT 10SM OVC015 M03/M05 A3033 RMK AO2 SNEMM P0000 T10281050 $
Conditions at: KMSO (MISSOULA , MT, US) observed 1958 UTC 25 January 2022
Temperature: -2.8°C (27°F)
Dewpoint: -5.0°C (23°F) [RH = 85%]
Pressure (altimeter): 30.33 inches Hg (1027.2 mb)
Winds: from the WNW (300 degrees) at 6 MPH (5 knots; 2.6 m/s)
Visibility: 10 or more miles (16+ km)
Ceiling: 1500 feet AGL
Clouds: overcast cloud deck at 1500 feet AGL
Weather:
SOME DATA ABOVE MAY BE INACCURATE!!!
"$" is an indication the sensor requires maintenance

METAR text: KMSO 251956Z 30005KT 1 1/4SM -SN OVC015 M03/M05 A3034 RMK AO2 P0000 T10281050 $
Conditions at: KMSO (MISSOULA , MT, US) observed 1956 UTC 25 January 2022
Temperature: -2.8°C (27°F)
Dewpoint: -5.0°C (23°F) [RH = 85%]
Pressure (altimeter): 30.34 inches Hg (1027.5 mb)
Winds: from the WNW (300 degrees) at 6 MPH (5 knots; 2.6 m/s)
Visibility: 1.25 miles (2.01 km)
Ceiling: 1500 feet AGL
Clouds: overcast cloud deck at 1500 feet AGL
Weather: -SN  (light snow)
SOME DATA ABOVE MAY BE INACCURATE!!!
"$" is an indication the sensor requires maintenance

METAR text: KMSO 251953Z 32005KT 2 1/2SM -SN BR OVC015 M03/M05 A3034 RMK AO2 SNB52 SLP317 P0000 T10281050
Conditions at: KMSO (MISSOULA , MT, US) observed 1953 UTC 25 January 2022
Temperature: -2.8°C (27°F)
Dewpoint: -5.0°C (23°F) [RH = 85%]
Pressure (altimeter): 30.34 inches Hg (1027.5 mb)
[Sea-level pressure: 1031.7 mb]
Winds: from the NW (320 degrees) at 6 MPH (5 knots; 2.6 m/s)
Visibility: 2.50 miles (4.02 km)
Ceiling: 1500 feet AGL
Clouds: overcast cloud deck at 1500 feet AGL
Weather: -SN BR  (light snow, mist)

Forecast for: KMSO (MISSOULA , MT, US)
Text: KMSO 251723Z 2518/2618 00000KT 4SM BR BKN009 OVC012
Forecast period: 1800 to 1900 UTC 25 January 2022
Forecast type: FROM: standard forecast or significant change
Winds: calm
Visibility: 4 miles (6 km)
Ceiling: 900 feet AGL
Clouds: broken clouds at 900 feet AGL
overcast cloud deck at 1200 feet AGL
Weather: BR  (mist)
Text: FM251900 15003KT 5SM BR FEW009 BKN012
Forecast period: 1900 to 2200 UTC 25 January 2022
Forecast type: FROM: standard forecast or significant change
Winds: from the SSE (150 degrees) at 3 MPH (3 knots; 1.5 m/s)
Visibility: 5 miles (8 km)
Ceiling: 1200 feet AGL
Clouds: few clouds at 900 feet AGL
broken clouds at 1200 feet AGL
Weather: BR  (mist)
Text: FM252200 25005KT P6SM SCT010 BKN050
Forecast period: 2200 UTC 25 January 2022 to 0600 UTC 26 January 2022
Forecast type: FROM: standard forecast or significant change
Winds: from the WSW (250 degrees) at 6 MPH (5 knots; 2.6 m/s)
Visibility: 6 or more miles (10+ km)
Ceiling: 5000 feet AGL
Clouds: scattered clouds at 1000 feet AGL
broken clouds at 5000 feet AGL
Weather: no significant weather forecast for this period
Text: FM260600 00000KT 3SM BR SCT015
Forecast period: 0600 to 1200 UTC 26 January 2022
Forecast type: FROM: standard forecast or significant change
Winds: calm
Visibility: 3 miles (5 km)
Ceiling: at least 12,000 feet AGL
Clouds: scattered clouds at 1500 feet AGL
Weather: BR  (mist)
Text: FM261200 00000KT 3SM BR VCSH SCT015 BKN050
Forecast period: 1200 to 1800 UTC 26 January 2022
Forecast type: FROM: standard forecast or significant change
Winds: calm
Visibility: 3 miles (5 km)
Ceiling: 5000 feet AGL
Clouds: scattered clouds at 1500 feet AGL
broken clouds at 5000 feet AGL
Weather: BR VCSH  (mist, showers in vicinity)